sensor_id;sensor_type;location;lat;lon;timestamp;P1;durP1;ratioP1;P2;durP2;ratioP2
29452;SDS011;16424;50.956;5.320;2023-01-08T00:02:17;7.07;;;2.60;;
29452;SDS011;16424;50.956;5.320;2023-01-08T00:04:43;5.22;;;2.30;;
29452;SDS011;16424;50.956;5.320;2023-01-08T00:07:09;3.70;;;1.95;;
29452;SDS011;16424;50.956;5.320;2023-01-08T00:09:35;5.50;;;2.55;;
29452;SDS011;16424;50.956;5.320;2023-01-08T00:12:00;9.30;;;2.85;;
29452;SDS011;16424;50.956;5.320;2023-01-08T00:14:26;2.55;;;2.10;;
29452;SDS011;16424;50.956;5.320;2023-01-08T00:16:52;4.90;;;2.30;;
29452;SDS011;16424;50.956;5.320;2023-01-08T00:19:18;5.32;;;2.55;;
29452;SDS011;16424;50.956;5.320;2023-01-08T00:21:43;5.75;;;2.22;;
29452;SDS011;16424;50.956;5.320;2023-01-08T00:24:10;5.25;;;2.30;;
29452;SDS011;16424;50.956;5.320;2023-01-08T00:26:35;4.28;;;2.20;;
29452;SDS011;16424;50.956;5.320;2023-01-08T00:29:01;6.95;;;2.80;;
29452;SDS011;16424;50.956;5.320;2023-01-08T00:31:27;5.28;;;2.50;;
29452;SDS011;16424;50.956;5.320;2023-01-08T00:33:52;4.75;;;2.42;;
29452;SDS011;16424;50.956;5.320;2023-01-08T00:36:18;3.17;;;2.20;;
29452;SDS011;16424;50.956;5.320;2023-01-08T00:38:44;7.80;;;2.70;;
29452;SDS011;16424;50.956;5.320;2023-01-08T00:41:11;4.53;;;3.08;;
29452;SDS011;16424;50.956;5.320;2023-01-08T00:43:41;4.38;;;2.38;;
29452;SDS011;16424;50.956;5.320;2023-01-08T00:46:06;6.50;;;2.53;;
29452;SDS011;16424;50.956;5.320;2023-01-08T00:48:32;7.43;;;2.40;;
29452;SDS011;16424;50.956;5.320;2023-01-08T00:51:02;4.40;;;2.25;;
29452;SDS011;16424;50.956;5.320;2023-01-08T00:53:28;4.85;;;2.22;;
29452;SDS011;16424;50.956;5.320;2023-01-08T00:56:00;6.00;;;2.65;;
29452;SDS011;16424;50.956;5.320;2023-01-08T00:58:28;7.13;;;2.42;;
29452;SDS011;16424;50.956;5.320;2023-01-08T01:00:54;6.80;;;2.78;;
29452;SDS011;16424;50.956;5.320;2023-01-08T01:03:20;3.45;;;2.17;;
29452;SDS011;16424;50.956;5.320;2023-01-08T01:05:46;9.20;;;3.05;;
29452;SDS011;16424;50.956;5.320;2023-01-08T01:08:11;4.53;;;2.35;;
29452;SDS011;16424;50.956;5.320;2023-01-08T01:10:37;5.00;;;2.15;;
29452;SDS011;16424;50.956;5.320;2023-01-08T01:13:03;3.80;;;2.50;;
29452;SDS011;16424;50.956;5.320;2023-01-08T01:15:29;5.32;;;2.55;;
29452;SDS011;16424;50.956;5.320;2023-01-08T01:17:56;3.25;;;2.10;;
29452;SDS011;16424;50.956;5.320;2023-01-08T01:20:21;5.35;;;2.08;;
29452;SDS011;16424;50.956;5.320;2023-01-08T01:22:47;6.13;;;2.40;;
29452;SDS011;16424;50.956;5.320;2023-01-08T01:25:13;3.60;;;2.20;;
29452;SDS011;16424;50.956;5.320;2023-01-08T01:27:39;5.28;;;2.47;;
29452;SDS011;16424;50.956;5.320;2023-01-08T01:30:05;3.08;;;1.95;;
29452;SDS011;16424;50.956;5.320;2023-01-08T01:32:32;4.97;;;2.05;;
29452;SDS011;16424;50.956;5.320;2023-01-08T01:34:58;4.20;;;2.55;;
29452;SDS011;16424;50.956;5.320;2023-01-08T01:37:23;4.63;;;2.10;;
29452;SDS011;16424;50.956;5.320;2023-01-08T01:39:50;3.80;;;2.40;;
29452;SDS011;16424;50.956;5.320;2023-01-08T01:42:16;4.45;;;2.13;;
29452;SDS011;16424;50.956;5.320;2023-01-08T01:45:02;2.92;;;1.83;;
29452;SDS011;16424;50.956;5.320;2023-01-08T01:47:37;4.22;;;1.88;;
29452;SDS011;16424;50.956;5.320;2023-01-08T01:50:14;5.43;;;1.95;;
29452;SDS011;16424;50.956;5.320;2023-01-08T01:52:49;3.63;;;2.30;;
29452;SDS011;16424;50.956;5.320;2023-01-08T01:55:22;2.58;;;1.92;;
29452;SDS011;16424;50.956;5.320;2023-01-08T01:57:50;2.97;;;2.00;;
29452;SDS011;16424;50.956;5.320;2023-01-08T02:00:23;5.28;;;2.20;;
29452;SDS011;16424;50.956;5.320;2023-01-08T02:02:50;3.67;;;1.98;;
29452;SDS011;16424;50.956;5.320;2023-01-08T02:05:16;4.25;;;2.40;;
29452;SDS011;16424;50.956;5.320;2023-01-08T02:13:06;4.05;;;2.25;;
29452;SDS011;16424;50.956;5.320;2023-01-08T02:18:38;5.95;;;2.53;;
29452;SDS011;16424;50.956;5.320;2023-01-08T02:21:16;5.50;;;2.03;;
29452;SDS011;16424;50.956;5.320;2023-01-08T02:24:40;4.55;;;2.10;;
29452;SDS011;16424;50.956;5.320;2023-01-08T02:26:58;4.22;;;2.00;;
29452;SDS011;16424;50.956;5.320;2023-01-08T02:29:26;5.97;;;2.13;;
29452;SDS011;16424;50.956;5.320;2023-01-08T02:31:53;3.53;;;2.22;;
29452;SDS011;16424;50.956;5.320;2023-01-08T02:34:19;3.28;;;1.95;;
29452;SDS011;16424;50.956;5.320;2023-01-08T02:36:52;3.80;;;2.42;;
29452;SDS011;16424;50.956;5.320;2023-01-08T02:39:31;5.10;;;2.15;;
29452;SDS011;16424;50.956;5.320;2023-01-08T02:47:43;5.78;;;1.90;;
29452;SDS011;16424;50.956;5.320;2023-01-08T02:50:18;3.20;;;1.92;;
29452;SDS011;16424;50.956;5.320;2023-01-08T02:52:56;5.63;;;1.95;;
29452;SDS011;16424;50.956;5.320;2023-01-08T02:55:33;3.80;;;2.00;;
29452;SDS011;16424;50.956;5.320;2023-01-08T02:58:01;6.15;;;2.20;;
29452;SDS011;16424;50.956;5.320;2023-01-08T03:00:28;3.35;;;1.63;;
29452;SDS011;16424;50.956;5.320;2023-01-08T03:05:42;4.13;;;2.25;;
29452;SDS011;16424;50.956;5.320;2023-01-08T03:08:10;3.63;;;1.77;;
29452;SDS011;16424;50.956;5.320;2023-01-08T03:10:36;2.70;;;2.10;;
29452;SDS011;16424;50.956;5.320;2023-01-08T03:13:07;3.00;;;1.35;;
29452;SDS011;16424;50.956;5.320;2023-01-08T03:15:46;3.08;;;1.90;;
29452;SDS011;16424;50.956;5.320;2023-01-08T03:18:18;3.80;;;1.85;;
29452;SDS011;16424;50.956;5.320;2023-01-08T03:20:47;5.43;;;1.70;;
29452;SDS011;16424;50.956;5.320;2023-01-08T03:23:14;4.97;;;1.67;;
29452;SDS011;16424;50.956;5.320;2023-01-08T03:25:42;3.00;;;1.48;;
29452;SDS011;16424;50.956;5.320;2023-01-08T03:28:12;4.13;;;2.15;;
29452;SDS011;16424;50.956;5.320;2023-01-08T03:30:43;1.55;;;1.27;;
29452;SDS011;16424;50.956;5.320;2023-01-08T03:33:11;3.65;;;1.85;;
29452;SDS011;16424;50.956;5.320;2023-01-08T03:35:39;3.90;;;1.40;;
29452;SDS011;16424;50.956;5.320;2023-01-08T03:38:09;4.13;;;1.60;;
29452;SDS011;16424;50.956;5.320;2023-01-08T03:40:42;4.55;;;1.48;;
29452;SDS011;16424;50.956;5.320;2023-01-08T03:43:13;2.72;;;1.45;;
29452;SDS011;16424;50.956;5.320;2023-01-08T03:45:41;3.30;;;1.30;;
29452;SDS011;16424;50.956;5.320;2023-01-08T03:48:14;3.30;;;1.60;;
29452;SDS011;16424;50.956;5.320;2023-01-08T03:50:42;2.45;;;1.10;;
29452;SDS011;16424;50.956;5.320;2023-01-08T03:53:08;4.82;;;1.67;;
29452;SDS011;16424;50.956;5.320;2023-01-08T03:55:33;3.25;;;1.25;;
29452;SDS011;16424;50.956;5.320;2023-01-08T03:57:59;3.28;;;1.58;;
29452;SDS011;16424;50.956;5.320;2023-01-08T04:00:25;1.95;;;1.17;;
29452;SDS011;16424;50.956;5.320;2023-01-08T04:02:50;2.83;;;1.60;;
29452;SDS011;16424;50.956;5.320;2023-01-08T04:05:16;3.05;;;1.33;;
29452;SDS011;16424;50.956;5.320;2023-01-08T04:07:42;5.50;;;1.45;;
29452;SDS011;16424;50.956;5.320;2023-01-08T04:10:08;5.40;;;1.35;;
29452;SDS011;16424;50.956;5.320;2023-01-08T04:12:34;5.70;;;1.30;;
29452;SDS011;16424;50.956;5.320;2023-01-08T04:14:59;2.50;;;1.38;;
29452;SDS011;16424;50.956;5.320;2023-01-08T04:17:25;4.13;;;1.55;;
29452;SDS011;16424;50.956;5.320;2023-01-08T04:19:51;3.65;;;1.15;;
29452;SDS011;16424;50.956;5.320;2023-01-08T04:22:17;9.25;;;1.67;;
29452;SDS011;16424;50.956;5.320;2023-01-08T04:24:43;7.00;;;1.50;;
29452;SDS011;16424;50.956;5.320;2023-01-08T04:27:08;6.85;;;1.38;;
29452;SDS011;16424;50.956;5.320;2023-01-08T04:29:34;3.92;;;1.55;;
29452;SDS011;16424;50.956;5.320;2023-01-08T04:32:00;3.70;;;1.55;;
29452;SDS011;16424;50.956;5.320;2023-01-08T04:34:25;3.63;;;1.10;;
29452;SDS011;16424;50.956;5.320;2023-01-08T04:36:51;9.55;;;1.30;;
29452;SDS011;16424;50.956;5.320;2023-01-08T04:39:17;5.78;;;1.48;;
29452;SDS011;16424;50.956;5.320;2023-01-08T04:41:42;3.38;;;1.02;;
29452;SDS011;16424;50.956;5.320;2023-01-08T04:44:08;2.40;;;0.98;;
29452;SDS011;16424;50.956;5.320;2023-01-08T04:46:34;3.53;;;1.00;;
29452;SDS011;16424;50.956;5.320;2023-01-08T04:49:00;3.75;;;1.00;;
29452;SDS011;16424;50.956;5.320;2023-01-08T04:51:26;5.78;;;1.23;;
29452;SDS011;16424;50.956;5.320;2023-01-08T04:53:51;4.82;;;0.98;;
29452;SDS011;16424;50.956;5.320;2023-01-08T04:56:17;5.10;;;1.05;;
29452;SDS011;16424;50.956;5.320;2023-01-08T04:58:43;4.57;;;0.95;;
29452;SDS011;16424;50.956;5.320;2023-01-08T05:01:17;3.05;;;1.63;;
29452;SDS011;16424;50.956;5.320;2023-01-08T05:03:44;6.90;;;1.40;;
29452;SDS011;16424;50.956;5.320;2023-01-08T05:06:10;5.47;;;0.88;;
29452;SDS011;16424;50.956;5.320;2023-01-08T05:08:36;7.85;;;1.67;;
29452;SDS011;16424;50.956;5.320;2023-01-08T05:11:02;8.77;;;1.58;;
29452;SDS011;16424;50.956;5.320;2023-01-08T05:13:28;6.63;;;0.90;;
29452;SDS011;16424;50.956;5.320;2023-01-08T05:15:57;6.30;;;1.10;;
29452;SDS011;16424;50.956;5.320;2023-01-08T05:18:24;5.45;;;1.27;;
29452;SDS011;16424;50.956;5.320;2023-01-08T05:20:49;4.22;;;1.20;;
29452;SDS011;16424;50.956;5.320;2023-01-08T05:23:15;4.97;;;0.70;;
29452;SDS011;16424;50.956;5.320;2023-01-08T05:25:41;2.97;;;0.90;;
29452;SDS011;16424;50.956;5.320;2023-01-08T05:28:06;4.57;;;1.10;;
29452;SDS011;16424;50.956;5.320;2023-01-08T05:30:32;5.47;;;0.73;;
29452;SDS011;16424;50.956;5.320;2023-01-08T05:32:57;5.00;;;1.13;;
29452;SDS011;16424;50.956;5.320;2023-01-08T05:35:24;3.53;;;0.80;;
29452;SDS011;16424;50.956;5.320;2023-01-08T05:37:50;5.80;;;1.10;;
29452;SDS011;16424;50.956;5.320;2023-01-08T05:40:16;5.93;;;1.33;;
29452;SDS011;16424;50.956;5.320;2023-01-08T05:42:41;5.07;;;0.85;;
29452;SDS011;16424;50.956;5.320;2023-01-08T05:45:07;7.57;;;1.10;;
29452;SDS011;16424;50.956;5.320;2023-01-08T05:47:33;5.30;;;0.80;;
29452;SDS011;16424;50.956;5.320;2023-01-08T05:49:59;2.33;;;0.50;;
29452;SDS011;16424;50.956;5.320;2023-01-08T05:52:25;3.35;;;0.75;;
29452;SDS011;16424;50.956;5.320;2023-01-08T05:54:51;6.30;;;0.80;;
29452;SDS011;16424;50.956;5.320;2023-01-08T05:57:16;7.55;;;1.02;;
29452;SDS011;16424;50.956;5.320;2023-01-08T05:59:42;8.02;;;1.10;;
29452;SDS011;16424;50.956;5.320;2023-01-08T06:02:08;6.28;;;0.98;;
29452;SDS011;16424;50.956;5.320;2023-01-08T06:04:34;5.03;;;1.08;;
29452;SDS011;16424;50.956;5.320;2023-01-08T06:06:59;8.02;;;1.45;;
29452;SDS011;16424;50.956;5.320;2023-01-08T06:09:25;4.68;;;1.00;;
29452;SDS011;16424;50.956;5.320;2023-01-08T06:11:50;4.90;;;0.98;;
29452;SDS011;16424;50.956;5.320;2023-01-08T06:14:17;3.90;;;0.98;;
29452;SDS011;16424;50.956;5.320;2023-01-08T06:16:43;5.90;;;0.93;;
29452;SDS011;16424;50.956;5.320;2023-01-08T06:19:09;4.50;;;0.68;;
29452;SDS011;16424;50.956;5.320;2023-01-08T06:21:35;5.82;;;0.93;;
29452;SDS011;16424;50.956;5.320;2023-01-08T06:24:01;4.97;;;0.95;;
29452;SDS011;16424;50.956;5.320;2023-01-08T06:26:26;5.63;;;0.65;;
29452;SDS011;16424;50.956;5.320;2023-01-08T06:28:52;6.35;;;1.20;;
29452;SDS011;16424;50.956;5.320;2023-01-08T06:31:17;5.63;;;0.98;;
29452;SDS011;16424;50.956;5.320;2023-01-08T06:33:43;7.07;;;1.42;;
29452;SDS011;16424;50.956;5.320;2023-01-08T06:36:09;3.78;;;0.90;;
29452;SDS011;16424;50.956;5.320;2023-01-08T06:38:35;9.20;;;1.10;;
29452;SDS011;16424;50.956;5.320;2023-01-08T06:41:04;5.13;;;1.40;;
29452;SDS011;16424;50.956;5.320;2023-01-08T06:43:32;6.35;;;1.67;;
29452;SDS011;16424;50.956;5.320;2023-01-08T06:45:58;4.05;;;1.10;;
29452;SDS011;16424;50.956;5.320;2023-01-08T06:48:28;6.00;;;1.35;;
29452;SDS011;16424;50.956;5.320;2023-01-08T06:50:54;7.68;;;1.35;;
29452;SDS011;16424;50.956;5.320;2023-01-08T06:53:21;6.68;;;1.05;;
29452;SDS011;16424;50.956;5.320;2023-01-08T06:55:47;6.85;;;1.10;;
29452;SDS011;16424;50.956;5.320;2023-01-08T06:58:13;4.90;;;0.70;;
29452;SDS011;16424;50.956;5.320;2023-01-08T07:00:38;9.40;;;1.48;;
29452;SDS011;16424;50.956;5.320;2023-01-08T07:03:04;8.50;;;2.05;;
29452;SDS011;16424;50.956;5.320;2023-01-08T07:05:30;8.88;;;1.13;;
29452;SDS011;16424;50.956;5.320;2023-01-08T07:07:56;6.30;;;1.30;;
29452;SDS011;16424;50.956;5.320;2023-01-08T07:10:21;6.43;;;1.20;;
29452;SDS011;16424;50.956;5.320;2023-01-08T07:12:48;3.50;;;1.48;;
29452;SDS011;16424;50.956;5.320;2023-01-08T07:15:16;5.82;;;1.15;;
29452;SDS011;16424;50.956;5.320;2023-01-08T07:17:42;11.15;;;1.60;;
29452;SDS011;16424;50.956;5.320;2023-01-08T07:20:08;8.02;;;1.10;;
29452;SDS011;16424;50.956;5.320;2023-01-08T07:22:34;6.68;;;1.30;;
29452;SDS011;16424;50.956;5.320;2023-01-08T07:25:00;6.82;;;1.13;;
29452;SDS011;16424;50.956;5.320;2023-01-08T07:27:26;6.22;;;1.40;;
29452;SDS011;16424;50.956;5.320;2023-01-08T07:29:51;7.60;;;1.20;;
29452;SDS011;16424;50.956;5.320;2023-01-08T07:32:19;8.38;;;1.30;;
29452;SDS011;16424;50.956;5.320;2023-01-08T07:34:45;8.82;;;1.23;;
29452;SDS011;16424;50.956;5.320;2023-01-08T07:37:11;7.03;;;1.20;;
29452;SDS011;16424;50.956;5.320;2023-01-08T07:39:36;10.15;;;1.30;;
29452;SDS011;16424;50.956;5.320;2023-01-08T07:42:02;8.02;;;1.60;;
29452;SDS011;16424;50.956;5.320;2023-01-08T07:44:28;6.65;;;1.05;;
29452;SDS011;16424;50.956;5.320;2023-01-08T07:46:53;7.38;;;1.38;;
29452;SDS011;16424;50.956;5.320;2023-01-08T07:49:19;9.23;;;1.58;;
29452;SDS011;16424;50.956;5.320;2023-01-08T07:51:47;9.05;;;1.63;;
29452;SDS011;16424;50.956;5.320;2023-01-08T07:54:13;7.30;;;1.52;;
29452;SDS011;16424;50.956;5.320;2023-01-08T07:56:39;6.80;;;1.63;;
29452;SDS011;16424;50.956;5.320;2023-01-08T07:59:04;8.32;;;1.20;;
29452;SDS011;16424;50.956;5.320;2023-01-08T08:01:30;11.93;;;1.60;;
29452;SDS011;16424;50.956;5.320;2023-01-08T08:03:55;8.55;;;2.00;;
29452;SDS011;16424;50.956;5.320;2023-01-08T08:06:21;8.68;;;1.40;;
29452;SDS011;16424;50.956;5.320;2023-01-08T08:08:47;12.70;;;1.52;;
29452;SDS011;16424;50.956;5.320;2023-01-08T08:11:12;8.77;;;1.83;;
29452;SDS011;16424;50.956;5.320;2023-01-08T08:13:38;11.43;;;1.95;;
29452;SDS011;16424;50.956;5.320;2023-01-08T08:16:09;7.50;;;2.00;;
29452;SDS011;16424;50.956;5.320;2023-01-08T08:18:35;13.07;;;2.08;;
29452;SDS011;16424;50.956;5.320;2023-01-08T08:21:01;4.38;;;1.40;;
29452;SDS011;16424;50.956;5.320;2023-01-08T08:23:28;7.78;;;1.73;;
29452;SDS011;16424;50.956;5.320;2023-01-08T08:25:53;6.15;;;1.23;;
29452;SDS011;16424;50.956;5.320;2023-01-08T08:28:19;9.32;;;1.88;;
29452;SDS011;16424;50.956;5.320;2023-01-08T08:30:45;8.05;;;1.30;;
29452;SDS011;16424;50.956;5.320;2023-01-08T08:33:11;5.45;;;1.50;;
29452;SDS011;16424;50.956;5.320;2023-01-08T08:35:37;15.55;;;1.83;;
29452;SDS011;16424;50.956;5.320;2023-01-08T08:38:03;6.78;;;1.50;;
29452;SDS011;16424;50.956;5.320;2023-01-08T08:40:29;8.25;;;1.40;;
29452;SDS011;16424;50.956;5.320;2023-01-08T08:42:59;5.70;;;1.20;;
29452;SDS011;16424;50.956;5.320;2023-01-08T08:45:26;12.10;;;1.85;;
29452;SDS011;16424;50.956;5.320;2023-01-08T08:47:53;9.85;;;1.85;;
29452;SDS011;16424;50.956;5.320;2023-01-08T08:50:19;5.45;;;1.00;;
29452;SDS011;16424;50.956;5.320;2023-01-08T08:52:45;13.00;;;1.80;;
29452;SDS011;16424;50.956;5.320;2023-01-08T08:55:12;5.78;;;1.30;;
29452;SDS011;16424;50.956;5.320;2023-01-08T08:57:41;10.75;;;1.70;;
29452;SDS011;16424;50.956;5.320;2023-01-08T09:00:10;6.80;;;1.85;;
29452;SDS011;16424;50.956;5.320;2023-01-08T09:02:37;12.30;;;2.05;;
29452;SDS011;16424;50.956;5.320;2023-01-08T09:05:03;5.72;;;1.40;;
29452;SDS011;16424;50.956;5.320;2023-01-08T09:07:29;7.97;;;1.40;;
29452;SDS011;16424;50.956;5.320;2023-01-08T09:09:54;7.07;;;1.70;;
29452;SDS011;16424;50.956;5.320;2023-01-08T09:12:20;8.75;;;1.85;;
29452;SDS011;16424;50.956;5.320;2023-01-08T09:14:46;8.95;;;1.70;;
29452;SDS011;16424;50.956;5.320;2023-01-08T09:17:14;5.38;;;1.70;;
29452;SDS011;16424;50.956;5.320;2023-01-08T09:19:40;6.82;;;2.17;;
29452;SDS011;16424;50.956;5.320;2023-01-08T09:22:05;11.70;;;2.67;;
29452;SDS011;16424;50.956;5.320;2023-01-08T09:24:31;8.10;;;1.58;;
29452;SDS011;16424;50.956;5.320;2023-01-08T09:26:57;7.22;;;1.85;;
29452;SDS011;16424;50.956;5.320;2023-01-08T09:29:23;10.77;;;2.00;;
29452;SDS011;16424;50.956;5.320;2023-01-08T09:31:49;7.18;;;2.15;;
29452;SDS011;16424;50.956;5.320;2023-01-08T09:34:15;8.75;;;1.58;;
29452;SDS011;16424;50.956;5.320;2023-01-08T09:36:40;8.38;;;1.83;;
29452;SDS011;16424;50.956;5.320;2023-01-08T09:39:06;3.38;;;1.73;;
29452;SDS011;16424;50.956;5.320;2023-01-08T09:41:33;6.28;;;1.77;;
29452;SDS011;16424;50.956;5.320;2023-01-08T09:44:01;2.72;;;0.82;;
29452;SDS011;16424;50.956;5.320;2023-01-08T09:46:30;3.70;;;0.90;;
29452;SDS011;16424;50.956;5.320;2023-01-08T09:49:00;3.40;;;1.30;;
29452;SDS011;16424;50.956;5.320;2023-01-08T09:51:35;3.47;;;0.70;;
29452;SDS011;16424;50.956;5.320;2023-01-08T09:54:02;6.05;;;1.35;;
29452;SDS011;16424;50.956;5.320;2023-01-08T09:56:32;4.78;;;0.98;;
29452;SDS011;16424;50.956;5.320;2023-01-08T09:59:00;3.25;;;0.95;;
29452;SDS011;16424;50.956;5.320;2023-01-08T10:01:34;1.40;;;0.70;;
29452;SDS011;16424;50.956;5.320;2023-01-08T10:06:32;4.68;;;0.75;;
29452;SDS011;16424;50.956;5.320;2023-01-08T10:08:57;1.52;;;1.15;;
29452;SDS011;16424;50.956;5.320;2023-01-08T10:11:24;5.78;;;1.15;;
29452;SDS011;16424;50.956;5.320;2023-01-08T10:13:52;1.70;;;0.70;;
29452;SDS011;16424;50.956;5.320;2023-01-08T10:16:28;2.33;;;1.20;;
29452;SDS011;16424;50.956;5.320;2023-01-08T10:18:58;3.90;;;1.13;;
29452;SDS011;16424;50.956;5.320;2023-01-08T10:21:30;4.90;;;1.00;;
29452;SDS011;16424;50.956;5.320;2023-01-08T10:24:00;2.58;;;0.82;;
29452;SDS011;16424;50.956;5.320;2023-01-08T10:26:33;5.95;;;1.27;;
29452;SDS011;16424;50.956;5.320;2023-01-08T10:31:45;5.78;;;2.05;;
29452;SDS011;16424;50.956;5.320;2023-01-08T10:34:57;3.28;;;1.27;;
29452;SDS011;16424;50.956;5.320;2023-01-08T10:37:22;4.40;;;1.40;;
29452;SDS011;16424;50.956;5.320;2023-01-08T10:39:53;5.22;;;1.45;;
29452;SDS011;16424;50.956;5.320;2023-01-08T10:42:26;4.57;;;1.20;;
29452;SDS011;16424;50.956;5.320;2023-01-08T10:44:54;3.78;;;1.10;;
29452;SDS011;16424;50.956;5.320;2023-01-08T10:47:20;7.97;;;2.10;;
29452;SDS011;16424;50.956;5.320;2023-01-08T10:49:48;6.55;;;1.73;;
29452;SDS011;16424;50.956;5.320;2023-01-08T10:52:29;5.38;;;0.90;;
29452;SDS011;16424;50.956;5.320;2023-01-08T10:54:57;8.73;;;2.35;;
29452;SDS011;16424;50.956;5.320;2023-01-08T10:57:38;2.80;;;0.82;;
29452;SDS011;16424;50.956;5.320;2023-01-08T11:00:20;2.58;;;0.70;;
29452;SDS011;16424;50.956;5.320;2023-01-08T11:02:50;3.58;;;0.90;;
29452;SDS011;16424;50.956;5.320;2023-01-08T11:05:16;1.95;;;0.75;;
29452;SDS011;16424;50.956;5.320;2023-01-08T11:07:42;1.63;;;0.80;;
29452;SDS011;16424;50.956;5.320;2023-01-08T11:10:24;2.90;;;0.70;;
29452;SDS011;16424;50.956;5.320;2023-01-08T11:12:55;0.90;;;0.55;;
29452;SDS011;16424;50.956;5.320;2023-01-08T11:18:05;3.80;;;0.65;;
29452;SDS011;16424;50.956;5.320;2023-01-08T11:20:37;2.70;;;0.60;;
29452;SDS011;16424;50.956;5.320;2023-01-08T11:23:14;2.97;;;1.33;;
29452;SDS011;16424;50.956;5.320;2023-01-08T11:25:49;2.38;;;0.80;;
29452;SDS011;16424;50.956;5.320;2023-01-08T11:28:24;4.43;;;0.88;;
29452;SDS011;16424;50.956;5.320;2023-01-08T11:31:16;2.10;;;0.60;;
29452;SDS011;16424;50.956;5.320;2023-01-08T11:33:47;3.13;;;0.80;;
29452;SDS011;16424;50.956;5.320;2023-01-08T11:36:29;4.63;;;0.80;;
29452;SDS011;16424;50.956;5.320;2023-01-08T11:38:59;4.38;;;0.88;;
29452;SDS011;16424;50.956;5.320;2023-01-08T11:41:39;3.85;;;1.83;;
29452;SDS011;16424;50.956;5.320;2023-01-08T11:44:31;4.32;;;0.90;;
29452;SDS011;16424;50.956;5.320;2023-01-08T11:47:03;7.22;;;1.48;;
29452;SDS011;16424;50.956;5.320;2023-01-08T11:52:21;4.40;;;0.90;;
29452;SDS011;16424;50.956;5.320;2023-01-08T11:55:12;4.10;;;1.35;;
29452;SDS011;16424;50.956;5.320;2023-01-08T11:57:55;4.18;;;0.70;;
29452;SDS011;16424;50.956;5.320;2023-01-08T12:03:59;2.35;;;0.70;;
29452;SDS011;16424;50.956;5.320;2023-01-08T12:12:54;3.55;;;0.77;;
29452;SDS011;16424;50.956;5.320;2023-01-08T12:29:15;4.90;;;0.95;;
29452;SDS011;16424;50.956;5.320;2023-01-08T12:37:01;4.43;;;0.93;;
29452;SDS011;16424;50.956;5.320;2023-01-08T12:39:39;4.57;;;0.90;;
29452;SDS011;16424;50.956;5.320;2023-01-08T12:42:28;6.53;;;0.90;;
29452;SDS011;16424;50.956;5.320;2023-01-08T12:44:56;4.50;;;0.75;;
29452;SDS011;16424;50.956;5.320;2023-01-08T12:47:26;5.88;;;1.33;;
29452;SDS011;16424;50.956;5.320;2023-01-08T12:50:09;2.95;;;0.65;;
29452;SDS011;16424;50.956;5.320;2023-01-08T12:53:02;6.82;;;0.90;;
29452;SDS011;16424;50.956;5.320;2023-01-08T12:55:41;4.93;;;1.10;;
29452;SDS011;16424;50.956;5.320;2023-01-08T12:58:29;2.60;;;0.93;;
29452;SDS011;16424;50.956;5.320;2023-01-08T13:03:53;2.65;;;0.60;;
29452;SDS011;16424;50.956;5.320;2023-01-08T13:06:19;6.20;;;1.30;;
29452;SDS011;16424;50.956;5.320;2023-01-08T13:08:50;4.82;;;1.23;;
29452;SDS011;16424;50.956;5.320;2023-01-08T13:11:28;5.90;;;1.08;;
29452;SDS011;16424;50.956;5.320;2023-01-08T13:14:01;8.90;;;2.08;;
29452;SDS011;16424;50.956;5.320;2023-01-08T13:16:43;2.45;;;1.00;;
29452;SDS011;16424;50.956;5.320;2023-01-08T13:19:23;2.28;;;0.80;;
29452;SDS011;16424;50.956;5.320;2023-01-08T13:21:54;2.90;;;0.80;;
29452;SDS011;16424;50.956;5.320;2023-01-08T13:24:33;1.67;;;0.63;;
29452;SDS011;16424;50.956;5.320;2023-01-08T13:27:10;2.50;;;0.57;;
29452;SDS011;16424;50.956;5.320;2023-01-08T13:32:25;2.40;;;0.88;;
29452;SDS011;16424;50.956;5.320;2023-01-08T13:37:44;2.85;;;0.90;;
29452;SDS011;16424;50.956;5.320;2023-01-08T13:42:59;4.25;;;0.90;;
29452;SDS011;16424;50.956;5.320;2023-01-08T13:45:25;6.00;;;1.77;;
29452;SDS011;16424;50.956;5.320;2023-01-08T13:47:53;4.03;;;1.17;;
29452;SDS011;16424;50.956;5.320;2023-01-08T13:50:20;3.90;;;0.65;;
29452;SDS011;16424;50.956;5.320;2023-01-08T13:53:03;4.25;;;0.93;;
29452;SDS011;16424;50.956;5.320;2023-01-08T13:55:37;6.15;;;1.20;;
29452;SDS011;16424;50.956;5.320;2023-01-08T14:00:48;3.88;;;1.20;;
29452;SDS011;16424;50.956;5.320;2023-01-08T14:03:23;4.13;;;1.00;;
29452;SDS011;16424;50.956;5.320;2023-01-08T14:06:07;6.85;;;1.20;;
29452;SDS011;16424;50.956;5.320;2023-01-08T14:08:49;3.50;;;0.90;;
29452;SDS011;16424;50.956;5.320;2023-01-08T14:11:18;6.30;;;1.10;;
29452;SDS011;16424;50.956;5.320;2023-01-08T14:13:46;2.83;;;1.00;;
29452;SDS011;16424;50.956;5.320;2023-01-08T14:16:14;3.45;;;1.33;;
29452;SDS011;16424;50.956;5.320;2023-01-08T14:18:43;5.15;;;0.80;;
29452;SDS011;16424;50.956;5.320;2023-01-08T14:21:11;3.28;;;1.00;;
29452;SDS011;16424;50.956;5.320;2023-01-08T14:23:43;3.72;;;1.10;;
29452;SDS011;16424;50.956;5.320;2023-01-08T14:26:16;4.57;;;1.60;;
29452;SDS011;16424;50.956;5.320;2023-01-08T14:28:55;4.15;;;0.90;;
29452;SDS011;16424;50.956;5.320;2023-01-08T14:31:25;3.78;;;1.10;;
29452;SDS011;16424;50.956;5.320;2023-01-08T14:33:55;9.20;;;1.20;;
29452;SDS011;16424;50.956;5.320;2023-01-08T14:36:23;2.78;;;1.00;;
29452;SDS011;16424;50.956;5.320;2023-01-08T14:38:49;2.75;;;1.10;;
29452;SDS011;16424;50.956;5.320;2023-01-08T14:43:45;3.03;;;0.80;;
29452;SDS011;16424;50.956;5.320;2023-01-08T14:48:46;4.78;;;0.82;;
29452;SDS011;16424;50.956;5.320;2023-01-08T14:51:13;3.42;;;1.02;;
29452;SDS011;16424;50.956;5.320;2023-01-08T14:53:45;3.03;;;1.10;;
29452;SDS011;16424;50.956;5.320;2023-01-08T14:56:15;4.22;;;1.20;;
29452;SDS011;16424;50.956;5.320;2023-01-08T14:58:44;3.92;;;1.00;;
29452;SDS011;16424;50.956;5.320;2023-01-08T15:01:18;3.17;;;1.02;;
29452;SDS011;16424;50.956;5.320;2023-01-08T15:03:49;5.50;;;2.03;;
29452;SDS011;16424;50.956;5.320;2023-01-08T15:06:26;2.63;;;0.98;;
29452;SDS011;16424;50.956;5.320;2023-01-08T15:08:54;5.38;;;2.03;;
29452;SDS011;16424;50.956;5.320;2023-01-08T15:11:21;6.43;;;1.50;;
29452;SDS011;16424;50.956;5.320;2023-01-08T15:13:58;4.95;;;0.95;;
29452;SDS011;16424;50.956;5.320;2023-01-08T15:21:34;7.20;;;1.42;;
29452;SDS011;16424;50.956;5.320;2023-01-08T15:24:01;2.63;;;0.93;;
29452;SDS011;16424;50.956;5.320;2023-01-08T15:26:28;1.75;;;0.70;;
29452;SDS011;16424;50.956;5.320;2023-01-08T15:28:55;5.07;;;0.90;;
29452;SDS011;16424;50.956;5.320;2023-01-08T15:31:46;7.20;;;1.20;;
29452;SDS011;16424;50.956;5.320;2023-01-08T15:34:13;5.32;;;1.00;;
29452;SDS011;16424;50.956;5.320;2023-01-08T15:36:42;3.15;;;1.10;;
29452;SDS011;16424;50.956;5.320;2023-01-08T15:39:09;7.00;;;1.50;;
29452;SDS011;16424;50.956;5.320;2023-01-08T15:41:35;5.43;;;1.30;;
29452;SDS011;16424;50.956;5.320;2023-01-08T15:44:21;2.67;;;0.85;;
29452;SDS011;16424;50.956;5.320;2023-01-08T15:46:48;4.80;;;1.10;;
29452;SDS011;16424;50.956;5.320;2023-01-08T15:49:15;2.40;;;0.82;;
29452;SDS011;16424;50.956;5.320;2023-01-08T15:51:43;1.70;;;0.90;;
29452;SDS011;16424;50.956;5.320;2023-01-08T15:54:12;5.53;;;1.10;;
29452;SDS011;16424;50.956;5.320;2023-01-08T15:56:38;4.03;;;0.90;;
29452;SDS011;16424;50.956;5.320;2023-01-08T15:59:04;4.82;;;1.30;;
29452;SDS011;16424;50.956;5.320;2023-01-08T16:01:30;5.13;;;1.27;;
29452;SDS011;16424;50.956;5.320;2023-01-08T16:03:57;9.60;;;2.33;;
29452;SDS011;16424;50.956;5.320;2023-01-08T16:06:23;5.70;;;1.50;;
29452;SDS011;16424;50.956;5.320;2023-01-08T16:08:49;4.97;;;1.20;;
29452;SDS011;16424;50.956;5.320;2023-01-08T16:11:18;2.88;;;1.25;;
29452;SDS011;16424;50.956;5.320;2023-01-08T16:13:44;4.53;;;1.45;;
29452;SDS011;16424;50.956;5.320;2023-01-08T16:16:11;6.43;;;1.25;;
29452;SDS011;16424;50.956;5.320;2023-01-08T16:18:38;3.47;;;1.73;;
29452;SDS011;16424;50.956;5.320;2023-01-08T16:21:04;3.63;;;1.50;;